Airfield :
LOGIN :

Register | Disclaimer

   EN    FR    IT 

 










Legend :    VFR   Marginal VFR   IFR   Intensive IFR   Very Intensive IFR
Visi :
Ceiling :
>= 8 km
>= 3000ft
5 to 8 km
1000 to 3000 ft
1500m to 5 km
500 to 1000 ft
800 to 1500m
200 to 500 ft
< 800m
< 200 ft
Symbols :   Thunderstorms  Fog  Heavy snow  Heavy precipitations  Wind > 20 kt
SIGMETs :     Misc.  Thunderstorms  Icing  Turbulence  Mountain Waves  Volcanic Ashes






- Airport Elevation : 284 ft


EGUW - RAF Wattisham

CURRENT METAR :
  • 271450Z 33017KT 9999 FEW025 06/01 Q1001 NOSIG RMK BLU BLU

EXPIRED METARs :
  • 271420Z 32016KT 9999 FEW022 SCT025 06/01 Q1000 NOSIG RMK BLU BLU
  • 271350Z 33018KT 9999 SCT018 05/03 Q0999 BECMG SCT025 RMK WHT BECMG BLU
  • 271320Z 32016KT 9999 FEW010 BKN028 04/02 Q0999 TEMPO SCT020 RMK BLU TEMPO WHT
  • 271250Z 33015KT 9999 BKN007 BKN009 03/02 Q0999 BECMG BKN018 RMK GRN BECMG WHT
  • 271242Z 33015KT 9999 FEW006 BKN007 03/02 Q0998 BECMG BKN018 RMK GRN BECMG WHT
  • 271219Z 33013KT 9999 FEW005 BKN006 02/02 Q0998 BECMG BKN018 RMK YLO1 BECMG WHT

TAF TAF EGUW
Valid from the 27 at 15:00 until the 28 at 00:00 UTC


271328Z 2715/2724 31015G25KT 9999 SCT025
BECMG 2715/2718 28012KT
PROB30 2715/2716 SCT022



MET'MAP, your aeronautical weather chart ! - Copyright ORBIFLY December 2007 - Disclaimer

ORBIFLY MET'MAP TEAM :

Programming & Development : Alexandra Zaïnal
Concept & original design : Baudouin d'Aumeries
Assistance for programming : Marc-Olivier Méhu
Technical & hardware support : Manuel Goepfert

Contact : metmap@orbifly.com




SOURCES & CREDITS :

   NOAA